Terminal Aerodrome Forecast
Issued by NWS Jackson, KY

Home | Current Version | Previous Version | Text Only | Print | Product List | Glossary On
Versions: 1 2 3 4 5 6 7 8 9 10 11 12 13 14
013
FTUS43 KJKL 180542
TAFJKL
TAF
KJKL 180542Z 1806/1906 VRB03KT P6SM SCT100
     FM180800 VRB03KT 4SM -SHRA VCTS SCT025CB BKN040
     FM181300 VRB03KT P6SM OVC015
     FM181600 VRB05KT P6SM SCT025
     FM190200 VRB03KT P6SM SKC=

USA.gov is the U.S. government's official web portal to all federal, state and local government web resources and services.